Time;durP1;ratioP1;P1;durP2;ratioP2;P2;SDS_P1;SDS_P2;PMS_P1;PMS_P2;Temp;Humidity;BMP_temperature;BMP_pressure;BME280_temperature;BME280_humidity;BME280_pressure;Samples;Min_cycle;Max_cycle;Signal;HPM_P1;HPM_P2
2021/09/18 00:00:00;;;;;;;7.10;4.30;;;;;;;14.41;91.16;99799.50;5114526;28;20448;-72
2021/09/18 00:02:29;;;;;;;5.82;4.60;;;;;;;14.48;91.12;99794.50;5114504;28;20039;-72
2021/09/18 00:04:57;;;;;;;6.95;4.57;;;;;;;14.50;90.87;99808.66;5114331;28;20134;-73
2021/09/18 00:07:28;;;;;;;7.40;4.75;;;;;;;14.53;90.60;99805.69;5114726;28;20043;-73
2021/09/18 00:09:57;;;;;;;7.93;4.68;;;;;;;14.52;91.13;99806.69;5114282;28;20122;-73
2021/09/18 00:12:25;;;;;;;5.72;4.57;;;;;;;14.37;91.91;99800.72;5114246;28;20069;-74
2021/09/18 00:14:54;;;;;;;6.13;5.20;;;;;;;14.25;92.53;99799.06;5113851;28;20031;-72
2021/09/18 00:17:22;;;;;;;7.40;5.07;;;;;;;14.32;92.25;99795.75;5114319;28;20044;-72
2021/09/18 00:19:50;;;;;;;6.82;5.25;;;;;;;14.23;93.00;99799.19;5113715;28;20053;-77
2021/09/18 00:22:19;;;;;;;5.95;4.85;;;;;;;14.16;93.58;99806.03;5095985;28;20048;-77
2021/09/18 00:24:48;;;;;;;8.07;4.90;;;;;;;14.24;92.82;99794.66;5113798;28;20494;-78
2021/09/18 00:27:17;;;;;;;7.15;4.80;;;;;;;14.19;93.60;99802.25;5114128;28;20043;-77
2021/09/18 00:29:45;;;;;;;6.35;4.95;;;;;;;14.18;93.58;99803.22;5113386;28;20048;-78
2021/09/18 00:32:13;;;;;;;6.57;5.20;;;;;;;14.21;93.84;99803.81;5113932;28;20071;-78
2021/09/18 00:34:41;;;;;;;6.93;5.65;;;;;;;14.10;94.11;99806.53;5113505;28;20039;-76
2021/09/18 00:37:10;;;;;;;7.75;5.50;;;;;;;14.30;93.04;99802.22;5114018;28;20051;-77
2021/09/18 00:39:38;;;;;;;7.13;5.55;;;;;;;14.22;93.49;99810.91;5113428;28;20397;-78
2021/09/18 00:42:07;;;;;;;7.88;6.07;;;;;;;14.15;93.77;99820.41;5113839;28;20562;-78
2021/09/18 00:44:35;;;;;;;9.18;5.82;;;;;;;14.17;93.98;99815.78;5112823;28;20048;-79
2021/09/18 00:47:04;;;;;;;6.75;5.13;;;;;;;14.17;93.94;99814.91;5113827;28;20421;-78
2021/09/18 00:49:35;;;;;;;8.65;5.85;;;;;;;14.11;94.19;99820.81;5113757;28;20044;-77
2021/09/18 00:52:06;;;;;;;8.73;5.88;;;;;;;14.08;94.44;99829.94;5113834;28;20067;-74
2021/09/18 00:54:35;;;;;;;8.50;6.32;;;;;;;14.10;94.26;99811.91;5113162;28;20081;-77
2021/09/18 00:57:03;;;;;;;7.50;6.00;;;;;;;14.01;94.74;99816.19;5113468;28;20406;-76
2021/09/18 00:59:34;;;;;;;9.00;6.43;;;;;;;14.01;94.97;99810.81;5113330;28;20493;-76
2021/09/18 01:02:02;;;;;;;7.82;6.15;;;;;;;13.95;95.46;99813.16;5113864;28;20054;-76
2021/09/18 01:04:31;;;;;;;8.95;6.55;;;;;;;13.90;95.94;99812.69;5113497;28;20057;-76
2021/09/18 01:07:00;;;;;;;8.48;6.68;;;;;;;13.96;95.66;99818.38;5095066;28;20048;-76
2021/09/18 01:09:29;;;;;;;9.48;6.70;;;;;;;13.90;96.08;99810.84;5113319;28;20051;-76
2021/09/18 01:11:58;;;;;;;9.80;7.10;;;;;;;13.84;96.66;99815.84;5112934;28;20051;-78
2021/09/18 01:14:26;;;;;;;9.38;7.40;;;;;;;13.83;96.67;99824.88;5113193;28;20134;-78
2021/09/18 01:16:56;;;;;;;10.38;7.75;;;;;;;13.75;97.20;99833.50;5113108;28;20054;-78
2021/09/18 01:19:25;;;;;;;9.85;7.38;;;;;;;13.82;97.14;99832.06;5113223;28;20044;-79
2021/09/18 01:21:57;;;;;;;8.68;6.35;;;;;;;13.79;97.68;99828.75;5113164;28;20055;-79
2021/09/18 01:24:27;;;;;;;9.63;7.47;;;;;;;13.79;97.67;99824.25;5113126;28;20478;-78
2021/09/18 01:26:55;;;;;;;9.65;7.90;;;;;;;13.69;98.21;99826.81;5112921;28;20055;-78
2021/09/18 01:29:23;;;;;;;10.43;7.75;;;;;;;13.77;97.96;99822.66;5113172;28;20416;-78
2021/09/18 01:31:52;;;;;;;10.57;8.13;;;;;;;13.66;98.17;99824.38;5113104;28;20067;-79
2021/09/18 01:34:22;;;;;;;10.50;7.90;;;;;;;13.69;98.32;99821.44;5113138;28;20393;-78
2021/09/18 01:36:52;;;;;;;10.48;8.07;;;;;;;13.65;98.58;99821.81;5113129;28;20081;-78
2021/09/18 01:39:21;;;;;;;12.30;7.75;;;;;;;13.66;98.69;99816.34;5113029;28;20491;-78
2021/09/18 01:41:51;;;;;;;13.30;8.57;;;;;;;13.67;98.66;99815.34;5112920;28;20371;-78
2021/09/18 01:44:19;;;;;;;10.63;8.00;;;;;;;13.67;98.61;99812.69;5113145;28;20138;-78
2021/09/18 01:46:48;;;;;;;10.23;8.18;;;;;;;13.71;98.32;99816.84;5112701;28;20480;-81
2021/09/18 01:49:17;;;;;;;11.52;7.75;;;;;;;13.67;98.53;99826.06;5113071;28;20122;-79
2021/09/18 01:51:55;;;;;;;12.10;7.82;;;;;;;13.65;98.54;99822.69;5112597;28;20039;-79
2021/09/18 01:54:24;;;;;;;9.75;7.68;;;;;;;13.66;98.70;99819.00;5113019;28;20561;-79
2021/09/18 01:56:54;;;;;;;11.63;8.48;;;;;;;13.62;98.66;99822.94;5113271;28;20482;-79
2021/09/18 01:59:22;;;;;;;12.13;8.25;;;;;;;13.64;98.72;99820.97;5116862;28;20051;-77
2021/09/18 02:01:51;;;;;;;11.05;8.60;;;;;;;13.64;98.74;99826.34;5116659;28;20039;-77
2021/09/18 02:04:19;;;;;;;13.85;8.27;;;;;;;13.64;98.64;99820.13;5116955;28;20051;-76
2021/09/18 02:06:49;;;;;;;9.75;7.72;;;;;;;13.77;98.02;99819.97;5116519;28;20047;-76
2021/09/18 02:09:18;;;;;;;11.23;8.77;;;;;;;13.73;98.08;99822.06;5116965;28;20468;-76
2021/09/18 02:11:46;;;;;;;11.02;8.50;;;;;;;13.75;97.96;99815.59;5116302;28;20122;-77
2021/09/18 02:14:16;;;;;;;11.80;8.30;;;;;;;13.69;98.09;99823.28;5116554;28;20439;-76
2021/09/18 02:16:45;;;;;;;11.88;8.13;;;;;;;13.68;98.48;99819.75;5116196;28;20059;-77
2021/09/18 02:19:14;;;;;;;14.30;8.57;;;;;;;13.72;98.28;99826.56;5116446;28;20122;-77
2021/09/18 02:21:42;;;;;;;11.82;8.02;;;;;;;13.52;99.32;99830.00;5116510;28;20063;-78
2021/09/18 02:24:10;;;;;;;10.10;8.10;;;;;;;13.53;99.46;99823.66;5116356;28;20122;-78
2021/09/18 02:26:38;;;;;;;15.27;9.05;;;;;;;13.55;99.47;99827.06;5116255;28;20046;-77
2021/09/18 02:29:06;;;;;;;11.40;7.88;;;;;;;13.52;99.83;99830.00;5116257;28;20383;-78
2021/09/18 02:31:36;;;;;;;11.38;8.50;;;;;;;13.58;99.52;99828.63;5116354;28;20043;-77
2021/09/18 02:34:05;;;;;;;11.77;7.63;;;;;;;13.59;99.05;99833.88;5116343;28;20051;-77
2021/09/18 02:36:33;;;;;;;11.02;8.05;;;;;;;13.49;99.52;99826.69;5116280;28;20134;-80
2021/09/18 02:39:02;;;;;;;11.50;7.93;;;;;;;13.53;99.74;99841.56;5116014;28;20389;-80
2021/09/18 02:41:32;;;;;;;11.07;7.38;;;;;;;13.50;99.95;99833.75;5116368;28;20051;-81
2021/09/18 02:44:01;;;;;;;11.82;8.05;;;;;;;13.48;99.93;99841.91;5115799;28;20104;-80
2021/09/18 02:46:30;;;;;;;11.40;8.70;;;;;;;13.46;100.00;99833.16;5116073;28;20097;-79
2021/09/18 02:49:00;;;;;;;13.18;8.50;;;;;;;13.44;100.00;99829.75;5115639;28;20409;-79
2021/09/18 02:51:28;;;;;;;11.55;8.70;;;;;;;13.49;99.95;99821.31;5115846;28;20112;-80
2021/09/18 02:53:56;;;;;;;13.95;9.02;;;;;;;13.48;99.49;99823.16;5115414;28;20043;-79
2021/09/18 02:56:24;;;;;;;11.25;8.75;;;;;;;13.41;100.00;99829.97;5115984;28;20043;-78
2021/09/18 02:58:52;;;;;;;12.48;8.07;;;;;;;13.43;99.91;99833.41;5097419;28;20134;-77
2021/09/18 03:01:21;;;;;;;11.50;8.15;;;;;;;13.39;100.00;99829.22;5115754;28;20039;-77
2021/09/18 03:03:49;;;;;;;9.82;7.70;;;;;;;13.29;100.00;99815.72;5115454;28;20078;-77
2021/09/18 03:06:19;;;;;;;11.77;8.23;;;;;;;13.27;100.00;99825.69;5115903;28;20058;-77
2021/09/18 03:08:47;;;;;;;11.90;7.50;;;;;;;13.28;100.00;99819.38;5114956;28;20442;-77
2021/09/18 03:11:16;;;;;;;12.57;8.40;;;;;;;13.21;100.00;99818.13;5115684;28;20085;-77
2021/09/18 03:13:44;;;;;;;10.30;7.43;;;;;;;13.17;100.00;99830.88;5115191;28;20043;-78
2021/09/18 03:16:12;;;;;;;11.50;8.60;;;;;;;13.14;100.00;99825.78;5115366;28;20040;-77
2021/09/18 03:18:40;;;;;;;12.93;8.82;;;;;;;13.10;100.00;99826.09;5115221;28;20051;-77
2021/09/18 03:21:09;;;;;;;12.00;8.50;;;;;;;13.10;100.00;99826.97;5115274;28;20049;-77
2021/09/18 03:23:39;;;;;;;11.55;9.20;;;;;;;13.05;100.00;99839.03;5115325;28;20077;-77
2021/09/18 03:26:07;;;;;;;14.45;9.50;;;;;;;13.09;100.00;99827.94;5115136;28;20421;-76
2021/09/18 03:28:35;;;;;;;12.00;8.60;;;;;;;13.13;100.00;99829.44;5115003;28;20043;-79
2021/09/18 03:31:07;;;;;;;11.52;8.85;;;;;;;13.02;100.00;99828.53;5115127;28;20055;-79
2021/09/18 03:33:39;;;;;;;;;;;;;;;12.90;100.00;99820.47;5115571;28;20123;-79
2021/09/18 03:36:07;;;;;;;11.35;8.13;;;;;;;13.20;100.00;99826.28;5114582;28;20332;-79
2021/09/18 03:38:35;;;;;;;10.45;8.15;;;;;;;13.18;100.00;99824.56;5115094;28;20040;-80
2021/09/18 03:41:05;;;;;;;12.88;9.07;;;;;;;13.10;100.00;99826.97;5114511;28;20047;-79
2021/09/18 03:43:33;;;;;;;11.35;8.13;;;;;;;13.22;100.00;99829.69;5114735;28;20429;-79
2021/09/18 03:46:01;;;;;;;12.18;8.27;;;;;;;13.17;100.00;99830.88;5114838;28;20367;-78
2021/09/18 03:48:30;;;;;;;11.77;8.82;;;;;;;13.16;100.00;99837.22;5097012;28;20045;-77
2021/09/18 03:50:58;;;;;;;12.65;8.60;;;;;;;13.25;100.00;99838.34;5114644;28;20046;-77
2021/09/18 03:53:26;;;;;;;12.80;8.52;;;;;;;13.22;100.00;99838.59;5114889;28;20371;-76
2021/09/18 03:55:55;;;;;;;10.27;7.88;;;;;;;13.23;100.00;99837.63;5114270;28;20092;-76
2021/09/18 03:58:24;;;;;;;10.77;8.68;;;;;;;13.25;100.00;99840.19;5114482;28;20074;-75
2021/09/18 04:00:52;;;;;;;11.65;8.90;;;;;;;13.24;100.00;99838.47;5114372;28;20501;-75
2021/09/18 04:03:21;;;;;;;13.18;9.70;;;;;;;13.14;100.00;99841.84;5114563;28;20100;-75
2021/09/18 04:05:53;;;;;;;12.68;9.73;;;;;;;13.05;100.00;99834.50;5114252;28;20044;-75
2021/09/18 04:08:22;;;;;;;13.05;9.50;;;;;;;13.03;100.00;99839.13;5114371;28;20069;-75
2021/09/18 04:10:50;;;;;;;12.35;8.40;;;;;;;13.02;100.00;99849.94;5113982;28;20051;-73
2021/09/18 04:13:19;;;;;;;12.90;8.90;;;;;;;12.95;100.00;99843.38;5114483;28;20494;-75
2021/09/18 04:15:48;;;;;;;13.65;8.65;;;;;;;12.97;100.00;99839.59;5113849;28;20050;-76
2021/09/18 04:18:17;;;;;;;11.98;8.98;;;;;;;12.92;100.00;99838.22;5114350;28;20042;-75
2021/09/18 04:20:45;;;;;;;13.48;9.98;;;;;;;12.86;100.00;99840.41;5113437;28;20048;-73
2021/09/18 04:23:14;;;;;;;11.43;7.65;;;;;;;12.97;100.00;99836.06;5113946;28;20039;-72
2021/09/18 04:25:42;;;;;;;12.50;7.95;;;;;;;12.94;100.00;99826.47;5114263;28;20051;-72
2021/09/18 04:28:11;;;;;;;12.00;8.98;;;;;;;12.88;100.00;99824.25;5113948;28;20043;-72
2021/09/18 04:30:39;;;;;;;12.73;9.00;;;;;;;12.92;100.00;99823.03;5113749;28;20079;-75
2021/09/18 04:33:09;;;;;;;12.52;9.35;;;;;;;12.90;100.00;99835.69;5113530;28;20138;-76
2021/09/18 04:35:37;;;;;;;12.27;9.50;;;;;;;12.90;100.00;99835.69;5113791;28;20050;-76
2021/09/18 04:38:07;;;;;;;12.18;8.82;;;;;;;12.97;100.00;99836.91;5113466;28;20039;-76
2021/09/18 04:40:35;;;;;;;12.80;10.02;;;;;;;13.01;100.00;99835.69;5114169;28;20043;-75
2021/09/18 04:43:04;;;;;;;14.13;9.15;;;;;;;13.11;100.00;99842.06;5095105;28;20055;-76
2021/09/18 04:45:32;;;;;;;11.57;8.52;;;;;;;13.06;100.00;99838.91;5113678;28;20036;-76
2021/09/18 04:48:00;;;;;;;15.10;9.30;;;;;;;13.10;100.00;99840.34;5113404;28;20439;-77
2021/09/18 04:50:30;;;;;;;13.50;9.57;;;;;;;13.13;100.00;99842.81;5095358;28;20043;-76
2021/09/18 04:53:00;;;;;;;11.68;8.27;;;;;;;13.20;100.00;99837.00;5113256;28;20047;-76
2021/09/18 04:55:28;;;;;;;12.23;8.68;;;;;;;13.23;100.00;99842.13;5113737;28;20486;-76
2021/09/18 04:57:57;;;;;;;12.18;9.10;;;;;;;13.24;100.00;99842.00;5113330;28;20509;-77
2021/09/18 05:00:26;;;;;;;11.95;8.35;;;;;;;13.28;100.00;99856.84;5113631;28;20117;-76
2021/09/18 05:02:54;;;;;;;11.90;8.60;;;;;;;13.29;100.00;99849.69;5112803;28;20054;-75
2021/09/18 05:05:23;;;;;;;11.10;9.15;;;;;;;13.39;100.00;99858.69;5113379;28;20051;-75
2021/09/18 05:07:52;;;;;;;14.48;8.38;;;;;;;13.40;100.00;99860.41;5113077;28;20486;-76
2021/09/18 05:10:21;;;;;;;14.32;8.82;;;;;;;13.48;99.81;99863.34;5113473;28;20053;-78
2021/09/18 05:12:49;;;;;;;11.25;8.43;;;;;;;13.55;98.98;99867.25;5113362;28;20146;-78
2021/09/18 05:15:19;;;;;;;12.95;8.63;;;;;;;13.66;98.65;99866.41;5113244;28;20493;-77
2021/09/18 05:17:51;;;;;;;11.38;9.07;;;;;;;13.70;98.23;99874.09;5112627;28;20075;-79
2021/09/18 05:20:19;;;;;;;11.30;8.10;;;;;;;13.77;97.86;99874.44;5113266;28;20040;-76
2021/09/18 05:22:48;;;;;;;11.10;8.38;;;;;;;13.89;97.52;99875.28;5113379;28;20035;-81
2021/09/18 05:25:17;;;;;;;10.45;7.40;;;;;;;14.04;96.70;99866.03;5112850;28;20093;-77
2021/09/18 05:27:46;;;;;;;11.18;7.00;;;;;;;14.21;95.65;99864.66;5112793;28;20051;-78
2021/09/18 05:30:15;;;;;;;11.45;7.75;;;;;;;14.23;95.76;99866.25;5112585;28;20052;-74
2021/09/18 05:32:43;;;;;;;10.98;7.18;;;;;;;14.45;94.82;99857.31;5117000;28;20046;-75
2021/09/18 05:35:12;;;;;;;10.82;7.25;;;;;;;14.68;93.48;99865.31;5116437;28;20102;-74
2021/09/18 05:37:41;;;;;;;10.43;7.40;;;;;;;14.76;92.27;99863.66;5116347;28;20063;-73
2021/09/18 05:40:11;;;;;;;8.98;6.72;;;;;;;14.91;92.14;99866.06;5116066;28;20396;-73
2021/09/18 05:42:41;;;;;;;10.13;6.95;;;;;;;15.00;91.57;99865.28;5116384;28;20031;-73
2021/09/18 05:45:10;;;;;;;8.18;5.50;;;;;;;15.06;90.87;99859.41;5116283;28;20390;-75
2021/09/18 05:47:39;;;;;;;9.70;6.97;;;;;;;15.06;90.60;99875.53;5116299;28;20089;-73
2021/09/18 05:50:08;;;;;;;7.93;5.93;;;;;;;15.18;89.78;99875.31;5115890;28;20081;-72
2021/09/18 05:52:36;;;;;;;7.70;5.00;;;;;;;15.22;89.47;99881.28;5116220;28;20099;-81
2021/09/18 05:55:07;;;;;;;9.00;6.32;;;;;;;15.29;89.40;99884.31;5116203;28;20044;-81
2021/09/18 05:57:35;;;;;;;11.35;6.53;;;;;;;15.27;89.54;99884.44;5116225;28;20374;-80
2021/09/18 06:00:06;;;;;;;9.95;5.68;;;;;;;15.35;89.45;99887.31;5116262;28;20429;-80
2021/09/18 06:02:34;;;;;;;8.70;5.80;;;;;;;15.48;88.40;99880.88;5116590;28;20464;-81
2021/09/18 06:05:04;;;;;;;8.18;6.28;;;;;;;15.41;88.78;99880.56;5116284;28;20039;-79
2021/09/18 06:07:33;;;;;;;9.90;6.25;;;;;;;15.52;87.64;99885.00;5116359;28;20051;-78
2021/09/18 06:10:01;;;;;;;7.32;5.57;;;;;;;15.60;87.71;99887.88;5116079;28;20044;-78
2021/09/18 06:12:30;;;;;;;8.82;6.18;;;;;;;15.57;87.81;99880.09;5116416;28;20146;-77
2021/09/18 06:14:59;;;;;;;8.10;5.50;;;;;;;15.70;87.20;99894.19;5116029;28;20123;-77
2021/09/18 06:17:28;;;;;;;10.77;6.38;;;;;;;15.80;87.03;99896.94;5116252;28;20050;-78
2021/09/18 06:19:57;;;;;;;8.05;5.65;;;;;;;15.83;86.76;99892.16;5115942;28;20043;-77
2021/09/18 06:22:25;;;;;;;9.55;6.38;;;;;;;15.80;86.73;99889.72;5098269;28;20140;-75
2021/09/18 06:24:53;;;;;;;9.45;6.45;;;;;;;15.74;87.95;99898.34;5116473;28;20031;-78
2021/09/18 06:27:22;;;;;;;10.05;6.43;;;;;;;15.83;87.36;99891.31;5116454;28;20039;-76
2021/09/18 06:29:52;;;;;;;8.77;6.38;;;;;;;15.82;86.47;99901.19;5116262;28;20051;-76
2021/09/18 06:32:21;;;;;;;8.80;6.63;;;;;;;15.76;87.35;99907.13;5115913;28;20035;-76
2021/09/18 06:34:50;;;;;;;9.90;7.20;;;;;;;15.79;87.29;99904.16;5116555;28;20036;-75
2021/09/18 06:37:19;;;;;;;9.02;6.90;;;;;;;15.64;87.96;99918.94;5115649;28;20043;-78
2021/09/18 06:39:47;;;;;;;8.25;5.82;;;;;;;15.44;89.03;99897.28;5116210;28;20039;-74
2021/09/18 06:42:15;;;;;;;10.55;7.53;;;;;;;15.57;88.36;99896.22;5114953;28;20046;-75
2021/09/18 06:44:45;;;;;;;11.23;7.88;;;;;;;15.78;87.81;99897.06;5115701;28;20047;-75
2021/09/18 06:47:13;;;;;;;9.18;6.63;;;;;;;15.98;86.95;99890.78;5115690;27;20389;-74
2021/09/18 06:49:42;;;;;;;9.27;6.50;;;;;;;15.89;87.51;99896.13;5116064;28;20136;-79
2021/09/18 06:52:11;;;;;;;9.10;6.82;;;;;;;15.97;86.77;99896.31;5120142;28;20067;-75
2021/09/18 06:54:41;;;;;;;9.40;6.45;;;;;;;16.06;86.45;99900.03;5115766;28;20105;-77
2021/09/18 06:57:11;;;;;;;10.48;7.43;;;;;;;15.84;87.68;99899.22;5115355;28;20401;-74
2021/09/18 06:59:40;;;;;;;8.73;7.18;;;;;;;15.68;88.62;99890.78;5115485;28;20043;-74
2021/09/18 07:02:08;;;;;;;10.60;7.85;;;;;;;15.60;88.57;99907.59;5115258;28;20050;-78
2021/09/18 07:04:37;;;;;;;11.57;8.88;;;;;;;15.69;88.60;99903.25;5115562;28;20055;-77
2021/09/18 07:07:06;;;;;;;12.02;8.55;;;;;;;15.77;88.80;99903.44;5115077;28;20093;-73
2021/09/18 07:09:35;;;;;;;10.65;7.95;;;;;;;15.86;87.33;99912.53;5115435;28;20070;-76
2021/09/18 07:12:05;;;;;;;10.30;8.20;;;;;;;15.91;87.09;99892.31;5114761;28;20043;-73
2021/09/18 07:14:33;;;;;;;10.57;8.23;;;;;;;15.93;86.69;99898.44;5115180;28;20048;-72
2021/09/18 07:17:02;;;;;;;11.80;8.00;;;;;;;15.93;86.70;99895.75;5114972;28;20214;-73
2021/09/18 07:19:30;;;;;;;8.65;7.03;;;;;;;15.99;87.24;99888.94;5115048;28;20040;-72
2021/09/18 07:21:58;;;;;;;11.45;6.18;;;;;;;16.02;86.30;99886.84;5115028;28;20118;-75
2021/09/18 07:24:31;;;;;;;10.05;7.30;;;;;;;16.17;85.58;99886.47;5114606;28;20096;-74
2021/09/18 07:27:01;;;;;;;9.25;7.05;;;;;;;16.28;84.82;99887.19;5114076;28;20047;-77
2021/09/18 07:29:29;;;;;;;10.00;6.88;;;;;;;16.30;84.58;99884.38;5114375;28;20062;-72
2021/09/18 07:31:58;;;;;;;9.55;6.47;;;;;;;16.47;83.50;99899.84;5114401;28;20051;-73
2021/09/18 07:34:29;;;;;;;8.27;5.72;;;;;;;16.40;84.26;99889.78;5114796;28;20043;-74
2021/09/18 07:36:58;;;;;;;10.02;6.80;;;;;;;16.42;83.86;99888.66;5114091;28;20059;-72
2021/09/18 07:39:27;;;;;;;9.70;6.50;;;;;;;16.52;83.93;99889.53;5113937;28;20044;-72
2021/09/18 07:41:56;;;;;;;7.85;5.88;;;;;;;16.66;83.42;99892.81;5114179;28;20050;-72
2021/09/18 07:44:26;;;;;;;7.80;5.70;;;;;;;16.75;83.13;99895.53;5113828;28;20089;-72
2021/09/18 07:46:54;;;;;;;7.00;5.22;;;;;;;16.86;82.50;99897.25;5114221;28;20051;-72
2021/09/18 07:49:23;;;;;;;8.27;5.28;;;;;;;16.95;80.07;99901.78;5113283;28;20254;-72
2021/09/18 07:51:51;;;;;;;7.20;5.03;;;;;;;17.00;79.45;99894.16;5114320;28;20051;-72
2021/09/18 07:54:19;;;;;;;8.00;5.50;;;;;;;17.20;78.58;99888.75;5112786;28;20118;-73
2021/09/18 07:56:48;;;;;;;5.75;4.20;;;;;;;17.22;77.30;99894.84;5113917;28;20160;-75
2021/09/18 07:59:16;;;;;;;6.50;4.03;;;;;;;17.34;77.25;99902.63;5113611;28;20347;-73
2021/09/18 08:01:46;;;;;;;7.03;4.90;;;;;;;17.51;76.22;99908.28;5114058;28;20043;-76
2021/09/18 08:04:14;;;;;;;6.57;4.55;;;;;;;17.68;75.44;99905.69;5114055;28;20071;-72
2021/09/18 08:06:43;;;;;;;5.95;4.28;;;;;;;17.86;74.47;99899.56;5096054;28;20047;-74
2021/09/18 08:09:11;;;;;;;5.72;4.20;;;;;;;18.06;72.67;99897.66;5114021;28;20067;-75
2021/09/18 08:11:39;;;;;;;5.95;3.92;;;;;;;18.18;71.17;99910.78;5114607;28;20048;-74
2021/09/18 08:14:07;;;;;;;5.80;3.78;;;;;;;18.07;70.03;99915.53;5113830;28;20059;-72
2021/09/18 08:16:36;;;;;;;6.13;3.65;;;;;;;18.02;69.81;99924.06;5113795;28;20047;-74
2021/09/18 08:19:06;;;;;;;7.47;3.80;;;;;;;17.94;71.35;99922.09;5095366;28;20055;-75
2021/09/18 08:21:34;;;;;;;6.80;4.07;;;;;;;18.02;72.12;99918.66;5114018;28;20039;-74
2021/09/18 08:24:03;;;;;;;4.65;3.50;;;;;;;18.08;72.93;99919.94;5113805;28;20050;-75
2021/09/18 08:26:31;;;;;;;4.63;3.53;;;;;;;17.89;72.17;99928.94;5113547;28;20045;-72
2021/09/18 08:29:00;;;;;;;5.40;3.65;;;;;;;17.99;72.72;99924.38;5113537;28;20124;-76
2021/09/18 08:31:28;;;;;;;5.57;3.47;;;;;;;17.95;72.34;99933.75;5113474;28;20036;-76
2021/09/18 08:33:57;;;;;;;7.35;3.97;;;;;;;17.95;72.60;99917.53;5113470;28;20400;-74
2021/09/18 08:36:26;;;;;;;5.78;3.88;;;;;;;17.77;73.59;99936.38;5113060;28;20039;-73
2021/09/18 08:38:55;;;;;;;6.63;4.00;;;;;;;17.88;73.89;99919.16;5113299;28;20409;-77
2021/09/18 08:41:23;;;;;;;5.95;3.92;;;;;;;17.82;73.42;99911.63;5112831;28;20079;-70
2021/09/18 08:43:51;;;;;;;5.63;3.80;;;;;;;17.94;74.18;99923.94;5112936;28;20039;-71
2021/09/18 08:46:20;;;;;;;6.38;3.50;;;;;;;18.09;73.68;99919.78;5112702;28;20038;-71
2021/09/18 08:48:51;;;;;;;4.47;3.55;;;;;;;18.02;72.91;99924.91;5112702;28;20048;-71
2021/09/18 08:51:19;;;;;;;6.93;3.97;;;;;;;18.19;72.67;99920.59;5093965;28;20515;-72
2021/09/18 08:53:49;;;;;;;4.90;3.10;;;;;;;18.21;70.21;99915.88;5112363;28;20088;-71
2021/09/18 08:56:20;;;;;;;8.43;3.30;;;;;;;18.29;69.18;99925.94;5111994;28;20096;-71
2021/09/18 08:58:49;;;;;;;5.38;3.40;;;;;;;18.15;70.14;99929.16;5112307;28;20043;-70
2021/09/18 09:01:19;;;;;;;6.63;3.22;;;;;;;18.15;70.75;99918.34;5094428;28;20075;-71
2021/09/18 09:03:57;;;;;;;6.72;3.45;;;;;;;18.23;70.25;99927.38;5113119;28;20051;-69
2021/09/18 09:06:41;;;;;;;5.38;3.42;;;;;;;18.29;69.73;99920.53;5112338;28;20072;-70
2021/09/18 09:09:11;;;;;;;6.88;3.80;;;;;;;18.21;69.38;99929.38;5113186;28;20052;-69
2021/09/18 09:11:48;;;;;;;4.93;2.85;;;;;;;18.27;69.30;99928.78;5113068;28;20043;-70
2021/09/18 09:14:16;;;;;;;4.30;2.70;;;;;;;18.30;67.40;99933.03;5113266;28;20043;-70
2021/09/18 09:17:02;;;;;;;4.47;3.20;;;;;;;18.45;67.77;99936.09;5113126;28;20163;-69
2021/09/18 09:19:39;;;;;;;4.65;3.13;;;;;;;18.51;68.26;99930.09;5112616;28;20570;-69
2021/09/18 09:22:08;;;;;;;4.43;3.00;;;;;;;18.87;66.92;99931.88;5094836;28;20044;-69
2021/09/18 09:24:49;;;;;;;4.35;2.55;;;;;;;18.96;65.71;99929.25;5113455;28;20044;-70
2021/09/18 09:27:20;;;;;;;4.57;2.30;;;;;;;19.01;65.62;99930.50;5112836;28;20044;-70
2021/09/18 09:29:51;;;;;;;6.40;2.97;;;;;;;19.14;64.81;99924.72;5094612;28;20466;-69
2021/09/18 09:32:26;;;;;;;6.47;3.10;;;;;;;19.14;64.89;99932.81;5112823;28;20048;-70
2021/09/18 09:34:55;;;;;;;4.53;3.10;;;;;;;18.97;65.20;99952.59;5113227;28;20044;-69
2021/09/18 09:37:25;;;;;;;4.65;2.95;;;;;;;18.91;64.60;99947.78;5112599;28;20464;-73
2021/09/18 09:39:57;;;;;;;5.10;2.97;;;;;;;18.98;65.21;99943.47;5112861;28;20062;-72
2021/09/18 09:42:27;;;;;;;4.88;2.75;;;;;;;19.09;64.37;99941.38;5112850;28;20126;-72
2021/09/18 09:45:09;;;;;;;4.70;2.78;;;;;;;18.96;65.26;99942.78;5113103;28;20044;-72
2021/09/18 09:47:38;;;;;;;6.85;2.60;;;;;;;19.32;65.09;99932.81;5112663;28;20558;-71
2021/09/18 09:50:07;;;;;;;5.20;2.95;;;;;;;19.34;64.06;99933.50;5112772;28;20045;-69
2021/09/18 09:52:38;;;;;;;3.65;2.78;;;;;;;19.19;64.55;99929.63;5112567;28;20044;-70
2021/09/18 09:55:12;;;;;;;7.40;3.35;;;;;;;19.14;64.43;99938.22;5112624;28;20401;-69
2021/09/18 09:57:42;;;;;;;5.90;3.30;;;;;;;19.01;65.49;99930.50;5112884;28;20048;-68
2021/09/18 10:00:12;;;;;;;4.63;3.20;;;;;;;18.93;65.17;99933.13;5112533;28;20044;-68
2021/09/18 10:02:43;;;;;;;4.68;2.80;;;;;;;18.93;66.02;99929.59;5112552;28;20054;-68
2021/09/18 10:05:14;;;;;;;4.35;2.97;;;;;;;18.87;66.21;99923.78;5112574;28;20047;-68
2021/09/18 10:07:43;;;;;;;7.03;3.65;;;;;;;18.74;66.08;99917.91;5112718;28;20046;-69
2021/09/18 10:10:14;;;;;;;5.30;3.00;;;;;;;18.80;66.60;99924.53;5112426;28;20092;-69
2021/09/18 10:12:43;;;;;;;4.00;2.75;;;;;;;18.90;66.44;99927.16;5112543;28;20043;-69
2021/09/18 10:15:12;;;;;;;5.97;3.30;;;;;;;19.07;65.41;99921.75;5112277;28;20542;-69
2021/09/18 10:17:43;;;;;;;5.00;3.40;;;;;;;19.36;66.19;99913.41;5112809;28;20129;-69
2021/09/18 10:20:14;;;;;;;4.05;2.63;;;;;;;19.57;63.89;99910.38;5115841;28;20040;-69
2021/09/18 10:25:36;;;;;;;4.97;3.05;;;;;;;19.70;63.69;99901.84;5115211;28;20406;-75
2021/09/18 10:28:09;;;;;;;4.63;2.92;;;;;;;19.90;64.39;99911.44;5115772;28;20043;-72
2021/09/18 10:30:41;;;;;;;5.00;2.95;;;;;;;19.98;62.82;99902.53;5115389;28;20138;-74
2021/09/18 10:33:31;;;;;;;4.53;3.00;;;;;;;19.97;62.22;99907.06;5115785;28;20050;-73
2021/09/18 10:36:02;;;;;;;4.70;2.40;;;;;;;19.84;62.12;99903.97;5115281;28;20109;-73
2021/09/18 10:38:34;;;;;;;4.30;2.80;;;;;;;19.75;61.38;99910.34;5115123;28;20149;-74
2021/09/18 10:41:09;;;;;;;5.32;2.70;;;;;;;19.92;61.83;99904.00;5115534;28;20032;-74
2021/09/18 10:43:39;;;;;;;3.70;2.53;;;;;;;19.96;61.58;99909.94;5115078;28;20096;-71
2021/09/18 10:46:11;;;;;;;4.45;2.83;;;;;;;19.79;61.21;99906.31;5097078;28;20058;-72
2021/09/18 10:48:45;;;;;;;5.70;2.42;;;;;;;19.93;60.15;99897.59;5114592;28;20058;-70
2021/09/18 10:51:41;;;;;;;4.75;2.95;;;;;;;19.93;60.23;99900.28;5115203;28;20118;-70
2021/09/18 10:54:15;;;;;;;3.90;2.47;;;;;;;19.99;59.16;99902.38;5068601;28;20052;-72
2021/09/18 10:56:58;;;;;;;9.07;4.38;;;;;;;19.93;59.88;99908.41;5115517;28;20049;-72
2021/09/18 10:59:45;;;;;;;3.75;2.25;;;;;;;20.06;59.61;99893.59;5117765;28;20096;-72
2021/09/18 11:02:46;;;;;;;4.63;2.50;;;;;;;20.42;59.18;99891.53;5115589;28;20547;-74
2021/09/18 11:05:45;;;;;;;4.18;2.25;;;;;;;20.43;57.90;99902.25;5115327;28;20122;-76
2021/09/18 11:08:28;;;;;;;4.25;2.50;;;;;;;20.53;56.78;99894.81;5115689;28;20047;-74
2021/09/18 11:10:59;;;;;;;3.72;2.42;;;;;;;20.31;56.74;99900.81;5115412;28;20051;-73
2021/09/18 11:13:33;;;;;;;3.30;2.30;;;;;;;20.41;57.54;99911.53;5115102;28;20047;-73
2021/09/18 11:16:05;;;;;;;5.00;2.38;;;;;;;20.24;58.13;99894.34;5097197;28;20051;-71
2021/09/18 11:18:37;;;;;;;4.07;2.08;;;;;;;20.19;57.84;99897.56;5115241;28;20096;-71
2021/09/18 11:21:13;;;;;;;3.20;2.00;;;;;;;20.21;58.46;99894.69;5114776;28;20053;-72
2021/09/18 11:23:48;;;;;;;4.55;2.30;;;;;;;20.36;58.06;99901.16;5114931;28;20486;-73
2021/09/18 11:26:40;;;;;;;3.20;1.55;;;;;;;20.28;57.66;99896.59;5114848;28;20493;-74
2021/09/18 11:29:16;;;;;;;3.92;1.95;;;;;;;20.21;57.88;99891.97;5114788;28;20056;-72
2021/09/18 11:31:55;;;;;;;3.85;2.00;;;;;;;20.00;58.23;99893.22;5114860;28;20054;-74
2021/09/18 11:34:25;;;;;;;3.83;2.22;;;;;;;19.81;58.61;99893.47;5115045;28;20047;-74
2021/09/18 11:36:55;;;;;;;3.20;2.05;;;;;;;19.63;58.64;99893.53;5114983;28;20390;-73
2021/09/18 11:39:52;;;;;;;3.75;2.00;;;;;;;19.71;58.95;99898.13;5115312;28;20440;-74
2021/09/18 11:42:28;;;;;;;3.25;2.00;;;;;;;19.78;59.42;99906.44;5068424;28;20043;-74
2021/09/18 11:45:04;;;;;;;4.47;2.30;;;;;;;19.85;58.97;99900.25;5114628;28;20050;-72